createdAt,value
2019-03-04T00:00:50.771Z,71.65
2019-03-04T00:03:18.750Z,71.22
2019-03-04T00:05:46.750Z,71.33
2019-03-04T00:08:19.452Z,71.09
2019-03-04T00:10:47.505Z,71.09
2019-03-04T00:13:15.275Z,71.62
2019-03-04T00:15:43.302Z,71.86
2019-03-04T00:18:11.286Z,71.51
2019-03-04T00:20:39.473Z,71.59
2019-03-04T00:23:07.247Z,71.79
2019-03-04T00:25:35.200Z,71.77
2019-03-04T00:28:03.182Z,71.32
2019-03-04T00:30:31.216Z,71.53
2019-03-04T00:32:58.954Z,71.67
2019-03-04T00:35:27.079Z,71.58
2019-03-04T00:37:54.940Z,71.64
2019-03-04T00:40:22.884Z,71.53
2019-03-04T00:42:51.734Z,71.30
2019-03-04T00:45:19.700Z,71.22
2019-03-04T00:47:47.553Z,71.62
2019-03-04T00:50:16.601Z,71.77
2019-03-04T00:52:44.450Z,71.15
2019-03-04T00:55:13.276Z,71.40
2019-03-04T00:57:41.156Z,71.58
2019-03-04T01:00:20.322Z,71.18
2019-03-04T01:02:48.244Z,71.32
2019-03-04T01:05:16.755Z,71.32
2019-03-04T01:07:44.729Z,71.01
2019-03-04T01:10:23.422Z,70.94
2019-03-04T01:12:52.121Z,70.68
2019-03-04T01:15:22.562Z,71.08
2019-03-04T01:17:50.545Z,71.22
2019-03-04T01:20:18.659Z,71.10
2019-03-04T01:22:46.751Z,71.02
2019-03-04T01:25:16.283Z,71.33
2019-03-04T01:27:44.145Z,71.20
2019-03-04T01:30:17.150Z,71.30
2019-03-04T01:32:45.098Z,71.32
2019-03-04T01:35:13.130Z,71.21
2019-03-04T01:37:41.117Z,71.49
2019-03-04T01:40:11.845Z,71.56
2019-03-04T01:42:40.495Z,71.60
2019-03-04T01:45:09.308Z,71.42
2019-03-04T01:47:37.137Z,71.50
2019-03-04T01:50:05.679Z,71.06
2019-03-04T01:52:33.617Z,71.30
2019-03-04T01:55:01.523Z,71.26
2019-03-04T01:57:29.290Z,71.03
2019-03-04T01:59:57.580Z,70.85
2019-03-04T02:02:25.400Z,70.76
2019-03-04T02:04:53.472Z,70.18
2019-03-04T02:07:21.276Z,70.16
2019-03-04T02:09:49.242Z,69.91
2019-03-04T02:12:19.858Z,69.66
2019-03-04T02:14:47.736Z,69.56
2019-03-04T02:17:15.569Z,69.04
2019-03-04T02:19:43.687Z,69.29
2019-03-04T02:22:11.741Z,69.33
2019-03-04T02:24:39.510Z,69.12
2019-03-04T02:27:07.526Z,69.30
2019-03-04T02:29:35.377Z,69.00
2019-03-04T02:32:03.434Z,68.70
2019-03-04T02:34:31.320Z,68.47
2019-03-04T02:36:59.173Z,68.44
2019-03-04T02:39:27.036Z,68.29
2019-03-04T02:41:54.885Z,68.15
2019-03-04T02:44:22.677Z,68.05
2019-03-04T02:46:50.511Z,68.03
2019-03-04T02:49:18.268Z,68.26
2019-03-04T02:51:46.205Z,68.13
2019-03-04T02:54:14.064Z,68.35
2019-03-04T02:56:41.907Z,68.42
2019-03-04T02:59:09.991Z,68.66
2019-03-04T03:01:37.942Z,68.41
2019-03-04T03:04:05.913Z,68.67
2019-03-04T03:06:33.920Z,68.70
2019-03-04T03:09:01.879Z,69.07
2019-03-04T03:11:30.178Z,69.16
2019-03-04T03:13:58.070Z,69.48
2019-03-04T03:16:25.838Z,69.56
2019-03-04T03:18:53.685Z,69.78
2019-03-04T03:21:21.482Z,69.76
2019-03-04T03:23:49.315Z,69.56
2019-03-04T03:26:17.068Z,69.68
2019-03-04T03:28:46.170Z,69.31
2019-03-04T03:31:13.915Z,69.36
2019-03-04T03:33:42.042Z,69.17
2019-03-04T03:36:09.839Z,68.99
2019-03-04T03:38:37.736Z,69.37
2019-03-04T03:41:05.628Z,69.43
2019-03-04T03:43:33.577Z,69.33
2019-03-04T03:46:03.229Z,69.59
2019-03-04T03:48:31.150Z,69.55
2019-03-04T03:50:59.037Z,69.21
2019-03-04T03:53:26.857Z,68.97
2019-03-04T03:55:54.805Z,69.01
2019-03-04T03:58:24.968Z,68.61
2019-03-04T04:00:52.499Z,68.84
2019-03-04T04:03:20.601Z,68.89
2019-03-04T04:05:48.554Z,69.13
2019-03-04T04:08:16.418Z,69.06
2019-03-04T04:10:44.280Z,69.35
2019-03-04T04:13:12.101Z,68.90
2019-03-04T04:15:40.382Z,68.63
2019-03-04T04:18:08.296Z,68.52
2019-03-04T04:20:36.192Z,68.78
2019-03-04T04:23:04.143Z,69.12
2019-03-04T04:25:31.932Z,69.06
2019-03-04T04:27:59.751Z,69.12
2019-03-04T04:30:28.649Z,69.36
2019-03-04T04:32:56.621Z,69.58
2019-03-04T04:35:24.474Z,69.50
2019-03-04T04:37:52.307Z,69.50
2019-03-04T04:40:20.190Z,69.68
2019-03-04T04:42:48.038Z,69.87
2019-03-04T04:45:15.912Z,69.74
2019-03-04T04:47:45.391Z,69.66
2019-03-04T04:50:13.728Z,69.46
2019-03-04T04:52:41.778Z,69.68
2019-03-04T04:55:09.815Z,69.74
2019-03-04T04:57:37.605Z,69.75
2019-03-04T05:00:09.217Z,70.06
2019-03-04T05:02:37.009Z,69.88
2019-03-04T05:05:05.517Z,69.83
2019-03-04T05:07:33.280Z,69.66
2019-03-04T05:10:01.205Z,69.80
2019-03-04T05:12:29.287Z,69.64
2019-03-04T05:14:57.118Z,69.83
2019-03-04T05:17:24.981Z,69.99
2019-03-04T05:19:52.859Z,69.89
2019-03-04T05:22:20.692Z,69.90
2019-03-04T05:24:48.534Z,69.91
2019-03-04T05:27:16.410Z,70.17
2019-03-04T05:29:45.923Z,70.17
2019-03-04T05:32:13.907Z,70.43
2019-03-04T05:34:41.741Z,70.35
2019-03-04T05:37:09.721Z,70.16
2019-03-04T05:39:37.530Z,70.44
2019-03-04T05:42:05.416Z,70.52
2019-03-04T05:44:33.234Z,70.74
2019-03-04T05:47:01.028Z,70.66
2019-03-04T05:49:28.834Z,70.69
2019-03-04T05:51:56.618Z,70.86
2019-03-04T05:54:24.439Z,71.33
2019-03-04T05:56:52.712Z,70.89
2019-03-04T05:59:20.623Z,70.62
2019-03-04T06:02:00.367Z,70.44
2019-03-04T06:04:28.247Z,70.62
2019-03-04T06:07:00.818Z,70.54
2019-03-04T06:09:28.867Z,70.38
2019-03-04T06:11:56.836Z,70.76
2019-03-04T06:14:24.838Z,70.40
2019-03-04T06:16:52.713Z,70.60
2019-03-04T06:19:21.256Z,70.64
2019-03-04T06:21:50.223Z,70.64
2019-03-04T06:24:18.057Z,70.57
2019-03-04T06:26:45.933Z,70.49
2019-03-04T06:29:13.894Z,70.59
2019-03-04T06:31:41.901Z,70.56
2019-03-04T06:34:09.859Z,70.39
2019-03-04T06:36:37.877Z,70.34
2019-03-04T06:39:07.181Z,70.25
2019-03-04T06:41:35.374Z,70.35
2019-03-04T06:44:04.308Z,69.99
2019-03-04T06:46:32.146Z,69.83
2019-03-04T06:48:59.915Z,69.63
2019-03-04T06:51:33.851Z,69.59
2019-03-04T06:54:52.224Z,75.52
2019-03-04T06:57:44.640Z,68.86
2019-03-04T07:00:27.130Z,68.88
2019-03-04T07:02:55.114Z,68.69
2019-03-04T07:05:51.286Z,68.58
2019-03-04T07:09:00.772Z,68.33
2019-03-04T07:11:29.615Z,68.66
2019-03-04T07:13:57.563Z,68.56
2019-03-04T07:16:25.590Z,68.46
2019-03-04T07:18:53.475Z,68.50
2019-03-04T07:21:21.570Z,68.48
2019-03-04T07:24:02.444Z,68.50
2019-03-04T07:26:30.242Z,68.46
2019-03-04T07:28:58.113Z,68.12
2019-03-04T07:31:26.154Z,68.00
2019-03-04T07:33:54.046Z,67.92
2019-03-04T07:36:22.075Z,67.70
2019-03-04T07:38:58.269Z,67.71
2019-03-04T07:41:30.570Z,67.52
2019-03-04T07:43:58.561Z,67.52
2019-03-04T07:46:26.496Z,67.20
2019-03-04T07:48:54.435Z,67.55
2019-03-04T07:51:22.308Z,67.67
2019-03-04T07:53:50.150Z,67.72
2019-03-04T07:56:18.011Z,67.73
2019-03-04T07:58:45.982Z,67.79
2019-03-04T08:01:13.791Z,67.76
2019-03-04T08:03:41.820Z,67.42
2019-03-04T08:06:09.794Z,66.77
2019-03-04T08:08:42.995Z,66.53
2019-03-04T08:11:55.734Z,67.01
2019-03-04T08:14:23.534Z,67.32
2019-03-04T08:16:51.280Z,67.77
2019-03-04T08:19:19.197Z,66.23
2019-03-04T08:21:47.151Z,65.77
2019-03-04T08:24:15.008Z,66.18
2019-03-04T08:26:42.869Z,66.18
2019-03-04T08:29:14.091Z,65.74
2019-03-04T08:31:41.960Z,65.74
2019-03-04T08:34:09.809Z,65.09
2019-03-04T08:36:37.667Z,64.99
2019-03-04T08:39:07.932Z,64.55
2019-03-04T08:41:35.730Z,64.00
2019-03-04T08:44:04.687Z,63.39
2019-03-04T08:46:32.471Z,63.52
2019-03-04T08:49:00.850Z,63.52
2019-03-04T08:51:28.730Z,63.92
2019-03-04T08:53:56.589Z,62.94
2019-03-04T08:56:24.581Z,62.53
2019-03-04T08:58:52.915Z,62.49
2019-03-04T09:01:20.788Z,61.59
2019-03-04T09:03:48.705Z,60.79
2019-03-04T09:06:16.672Z,60.77
2019-03-04T09:08:44.502Z,60.35
2019-03-04T09:11:12.685Z,60.35
2019-03-04T09:13:42.316Z,60.04
2019-03-04T09:16:10.190Z,59.43
2019-03-04T09:18:38.191Z,59.43
2019-03-04T09:21:06.771Z,59.40
2019-03-04T09:23:34.625Z,58.70
2019-03-04T09:26:05.515Z,58.77
2019-03-04T09:28:34.081Z,57.86
2019-03-04T09:31:02.161Z,57.97
2019-03-04T09:33:29.949Z,57.69
2019-03-04T09:35:58.009Z,57.69
2019-03-04T09:38:25.879Z,56.71
2019-03-04T09:40:53.795Z,56.44
2019-03-04T09:43:21.798Z,55.69
2019-03-04T09:45:49.854Z,55.32
2019-03-04T09:48:17.619Z,55.32
2019-03-04T09:50:47.200Z,55.63
2019-03-04T09:53:15.072Z,55.63
2019-03-04T09:55:43.002Z,55.36
2019-03-04T09:58:11.211Z,55.43
2019-03-04T10:00:47.496Z,55.48
2019-03-04T10:03:47.992Z,55.90
2019-03-04T10:06:32.884Z,55.80
2019-03-04T10:09:57.876Z,56.21
2019-03-04T10:12:38.496Z,56.21
2019-03-04T10:15:25.283Z,55.89
2019-03-04T10:18:01.864Z,55.89
2019-03-04T10:20:58.111Z,56.05
2019-03-04T10:24:06.322Z,55.69
2019-03-04T10:27:21.579Z,55.13
2019-03-04T10:30:24.642Z,54.99
2019-03-04T10:33:13.388Z,54.64
2019-03-04T10:36:12.380Z,54.64
2019-03-04T10:39:22.097Z,54.51
2019-03-04T10:42:29.443Z,54.65
2019-03-04T10:45:18.222Z,54.71
2019-03-04T10:47:46.318Z,54.69
2019-03-04T10:50:14.857Z,53.88
2019-03-04T10:52:42.947Z,54.28
2019-03-04T10:55:11.245Z,54.26
2019-03-04T10:57:39.249Z,54.11
2019-03-04T11:00:16.967Z,54.31
2019-03-04T11:02:45.731Z,53.25
2019-03-04T11:05:13.892Z,53.25
2019-03-04T11:07:41.892Z,53.41
2019-03-04T11:10:10.013Z,53.41
2019-03-04T11:12:37.872Z,53.26
2019-03-04T11:15:17.398Z,52.80
2019-03-04T11:17:45.286Z,52.62
2019-03-04T11:20:13.208Z,52.62
2019-03-04T11:22:41.286Z,52.65
2019-03-04T11:25:09.405Z,52.74
2019-03-04T11:27:37.387Z,52.16
2019-03-04T11:30:05.713Z,52.73
2019-03-04T11:32:33.514Z,52.32
2019-03-04T11:35:01.325Z,51.99
2019-03-04T11:37:29.298Z,52.52
2019-03-04T11:40:02.160Z,53.03
2019-03-04T11:42:30.095Z,53.17
2019-03-04T11:44:58.020Z,52.54
2019-03-04T11:47:26.652Z,52.54
2019-03-04T11:49:54.567Z,52.75
2019-03-04T11:52:23.294Z,52.30
2019-03-04T11:54:51.343Z,52.30
2019-03-04T11:57:19.095Z,52.38
2019-03-04T11:59:46.978Z,52.41
2019-03-04T12:02:19.629Z,51.80
2019-03-04T12:04:48.347Z,51.80
2019-03-04T12:07:16.403Z,51.90
2019-03-04T12:09:44.258Z,51.88
2019-03-04T12:12:12.570Z,51.16
2019-03-04T12:14:40.405Z,51.98
2019-03-04T12:17:08.361Z,51.46
2019-03-04T12:19:37.127Z,51.38
2019-03-04T12:22:05.085Z,51.69
2019-03-04T12:24:32.983Z,50.96
2019-03-04T12:27:00.954Z,50.96
2019-03-04T12:29:28.885Z,51.36
2019-03-04T12:32:25.241Z,51.01
2019-03-04T12:34:53.083Z,50.12
2019-03-04T12:37:23.309Z,49.59
2019-03-04T12:39:51.350Z,49.59
2019-03-04T12:42:19.109Z,49.55
2019-03-04T12:44:47.056Z,49.20
2019-03-04T12:47:16.405Z,49.05
2019-03-04T12:49:44.562Z,48.67
2019-03-04T12:52:12.343Z,48.40
2019-03-04T12:54:40.322Z,48.56
2019-03-04T12:57:08.234Z,48.56
2019-03-04T12:59:36.284Z,47.24
2019-03-04T13:02:04.166Z,47.24
2019-03-04T13:04:32.144Z,47.33
2019-03-04T13:07:00.154Z,46.57
2019-03-04T13:09:28.201Z,46.50
2019-03-04T13:11:57.102Z,46.23
2019-03-04T13:14:25.883Z,46.62
2019-03-04T13:16:55.253Z,47.08
2019-03-04T13:19:23.109Z,47.34
2019-03-04T13:21:51.119Z,47.31
2019-03-04T13:24:19.072Z,47.32
2019-03-04T13:26:47.507Z,47.50
2019-03-04T13:29:15.535Z,47.24
2019-03-04T13:31:44.200Z,47.18
2019-03-04T13:34:12.182Z,47.33
2019-03-04T13:36:40.045Z,47.59
2019-03-04T13:39:10.532Z,48.13
2019-03-04T13:41:38.591Z,48.53
2019-03-04T13:44:07.385Z,48.46
2019-03-04T13:46:35.424Z,47.96
2019-03-04T13:49:03.553Z,47.92
2019-03-04T13:51:31.809Z,47.77
2019-03-04T13:54:00.408Z,47.81
2019-03-04T13:56:28.345Z,47.25
2019-03-04T13:58:56.120Z,46.71
2019-03-04T14:01:24.600Z,46.95
2019-03-04T14:03:52.650Z,45.49
2019-03-04T14:06:20.604Z,45.00
2019-03-04T14:08:48.774Z,45.00
2019-03-04T14:11:16.748Z,45.23
2019-03-04T14:13:44.632Z,45.63
2019-03-04T14:16:13.058Z,45.64
2019-03-04T14:18:40.866Z,45.58
2019-03-04T14:21:08.841Z,45.51
2019-03-04T14:23:36.729Z,44.86
2019-03-04T14:26:05.279Z,42.98
2019-03-04T14:28:33.089Z,41.35
2019-03-04T14:31:00.957Z,41.37
2019-03-04T14:33:28.959Z,39.75
2019-03-04T14:35:56.934Z,40.55
2019-03-04T14:38:24.806Z,40.81
2019-03-04T14:40:52.636Z,40.59
2019-03-04T14:43:21.455Z,39.33
2019-03-04T14:45:49.303Z,38.98
2019-03-04T14:48:18.077Z,37.96
2019-03-04T14:50:47.264Z,37.89
2019-03-04T14:53:15.241Z,37.03
2019-03-04T14:55:43.055Z,35.92
2019-03-04T14:58:10.927Z,35.26
2019-03-04T15:00:40.314Z,35.94
2019-03-04T15:03:08.302Z,36.53
2019-03-04T15:05:36.393Z,37.40
2019-03-04T15:08:04.458Z,38.01
2019-03-04T15:10:33.679Z,38.56
2019-03-04T15:13:12.438Z,38.56
2019-03-04T15:15:40.545Z,39.04
2019-03-04T15:18:08.500Z,38.52
2019-03-04T15:20:36.556Z,38.10
2019-03-04T15:23:04.524Z,37.62
2019-03-04T15:25:32.710Z,37.32
2019-03-04T15:28:12.546Z,36.81
2019-03-04T15:30:41.588Z,37.33
2019-03-04T15:33:17.415Z,37.26
2019-03-04T15:35:39.343Z,36.50
2019-03-04T15:38:07.319Z,37.04
2019-03-04T15:40:35.182Z,36.38
2019-03-04T15:43:03.354Z,35.64
2019-03-04T15:45:33.534Z,35.12
2019-03-04T15:48:01.345Z,33.56
2019-03-04T15:50:29.323Z,33.56
2019-03-04T15:52:57.393Z,33.72
2019-03-04T15:55:25.903Z,33.71
2019-03-04T15:57:53.969Z,33.95
2019-03-04T16:00:22.076Z,34.59
2019-03-04T16:02:50.095Z,34.60
2019-03-04T16:05:18.176Z,34.75
2019-03-04T16:07:46.191Z,35.01
2019-03-04T16:10:15.450Z,34.29
2019-03-04T16:12:43.788Z,34.38
2019-03-04T16:15:20.301Z,34.47
2019-03-04T16:17:48.361Z,34.27
2019-03-04T16:20:16.794Z,34.09
2019-03-04T16:22:44.876Z,34.72
2019-03-04T16:25:12.999Z,34.55
2019-03-04T16:27:41.213Z,34.54
2019-03-04T16:30:12.763Z,34.63
2019-03-04T16:32:40.945Z,34.63
2019-03-04T16:35:08.978Z,34.62
2019-03-04T16:37:37.039Z,35.06
2019-03-04T16:40:05.992Z,35.20
2019-03-04T16:42:33.973Z,35.75
2019-03-04T16:45:01.935Z,36.14
2019-03-04T16:47:29.863Z,35.36
2019-03-04T16:49:57.815Z,35.80
2019-03-04T16:52:28.768Z,35.64
2019-03-04T16:54:57.453Z,35.79
2019-03-04T16:57:25.574Z,35.79
2019-03-04T16:59:53.484Z,35.82
2019-03-04T17:02:21.513Z,35.81
2019-03-04T17:04:49.513Z,35.39
2019-03-04T17:07:17.459Z,35.24
2019-03-04T17:09:45.368Z,35.40
2019-03-04T17:12:13.673Z,35.40
2019-03-04T17:14:41.653Z,35.41
2019-03-04T17:17:11.698Z,35.75
2019-03-04T17:19:40.508Z,36.24
2019-03-04T17:22:09.144Z,36.71
2019-03-04T17:24:42.621Z,36.71
2019-03-04T17:27:10.611Z,36.87
2019-03-04T17:29:38.526Z,37.27
2019-03-04T17:32:07.864Z,37.40
2019-03-04T17:34:35.853Z,37.80
2019-03-04T17:37:05.083Z,37.57
2019-03-04T17:39:33.287Z,37.72
2019-03-04T17:42:01.109Z,37.56
2019-03-04T17:44:29.057Z,37.52
2019-03-04T17:46:56.937Z,37.74
2019-03-04T17:49:25.012Z,37.82
2019-03-04T17:51:52.999Z,37.97
2019-03-04T17:54:21.068Z,37.67
2019-03-04T17:56:51.023Z,38.02
2019-03-04T17:59:19.045Z,37.98
2019-03-04T18:01:48.060Z,38.00
2019-03-04T18:04:15.968Z,38.06
2019-03-04T18:06:44.060Z,38.08
2019-03-04T18:09:12.925Z,38.39
2019-03-04T18:11:40.739Z,38.36
2019-03-04T18:14:09.951Z,39.08
2019-03-04T18:16:37.905Z,39.12
2019-03-04T18:19:05.951Z,39.16
2019-03-04T18:21:34.775Z,39.62
2019-03-04T18:24:02.732Z,39.51
2019-03-04T18:26:35.803Z,39.67
2019-03-04T18:29:31.809Z,39.78
2019-03-04T18:32:49.415Z,39.78
2019-03-04T18:35:49.377Z,39.91
2019-03-04T18:38:50.069Z,39.79
2019-03-04T18:41:55.947Z,39.91
2019-03-04T18:44:39.542Z,40.10
2019-03-04T18:47:31.397Z,40.32
2019-03-04T18:49:59.761Z,40.46
2019-03-04T18:52:31.279Z,40.93
2019-03-04T18:54:59.220Z,41.04
2019-03-04T18:57:27.165Z,40.79
2019-03-04T18:59:55.087Z,40.81
2019-03-04T19:02:23.264Z,40.81
2019-03-04T19:04:52.956Z,41.02
2019-03-04T19:07:21.101Z,41.02
2019-03-04T19:09:49.524Z,41.39
2019-03-04T19:12:20.368Z,41.37
2019-03-04T19:14:48.274Z,41.42
2019-03-04T19:17:16.321Z,41.64
2019-03-04T19:19:44.194Z,41.76
2019-03-04T19:22:26.357Z,41.74
2019-03-04T19:24:52.549Z,41.74
2019-03-04T19:27:20.445Z,42.05
2019-03-04T19:29:48.349Z,42.41
2019-03-04T19:32:16.285Z,42.41
2019-03-04T19:34:44.117Z,42.85
2019-03-04T19:37:12.200Z,43.12
2019-03-04T19:39:40.106Z,42.89
2019-03-04T19:42:08.154Z,43.12
2019-03-04T19:44:36.032Z,43.17
2019-03-04T19:47:04.401Z,43.17
2019-03-04T19:49:32.403Z,43.23
2019-03-04T19:52:00.476Z,43.52
2019-03-04T19:54:28.540Z,43.52
2019-03-04T19:56:56.600Z,43.10
2019-03-04T19:59:24.592Z,43.20
2019-03-04T20:01:52.650Z,43.49
2019-03-04T20:04:20.639Z,43.49
2019-03-04T20:06:49.543Z,43.64
2019-03-04T20:09:17.563Z,43.64
2019-03-04T20:11:45.546Z,43.90
2019-03-04T20:14:13.462Z,43.90
2019-03-04T20:16:41.464Z,44.35
2019-03-04T20:19:09.519Z,44.50
2019-03-04T20:21:37.494Z,44.81
2019-03-04T20:24:16.706Z,45.19
2019-03-04T20:26:44.864Z,45.44
2019-03-04T20:29:12.896Z,49.55
2019-03-04T20:31:40.793Z,49.55
2019-03-04T20:34:08.735Z,46.84
2019-03-04T20:36:36.617Z,46.61
2019-03-04T20:39:09.069Z,47.54
2019-03-04T20:41:36.978Z,46.47
2019-03-04T20:44:05.645Z,44.59
2019-03-04T20:46:33.400Z,44.59
2019-03-04T20:49:01.448Z,44.87
2019-03-04T20:51:29.327Z,45.27
2019-03-04T20:53:57.875Z,45.27
2019-03-04T20:56:26.067Z,45.62
2019-03-04T20:58:53.992Z,45.62
2019-03-04T21:01:22.191Z,45.74
2019-03-04T21:03:50.208Z,45.79
2019-03-04T21:06:18.213Z,47.00
2019-03-04T21:08:46.756Z,47.77
2019-03-04T21:11:14.741Z,47.77
2019-03-04T21:13:42.770Z,51.67
2019-03-04T21:16:10.643Z,54.26
2019-03-04T21:18:38.682Z,56.28
2019-03-04T21:21:07.432Z,58.71
2019-03-04T21:23:36.770Z,58.66
2019-03-04T21:26:17.177Z,59.22
2019-03-04T21:29:32.804Z,59.22
2019-03-04T21:32:51.579Z,59.81
2019-03-04T21:35:58.466Z,58.66
2019-03-04T21:38:29.142Z,59.91
2019-03-04T21:41:56.491Z,60.63
2019-03-04T21:44:57.172Z,59.83
2019-03-04T21:47:31.663Z,60.70
2019-03-04T21:49:59.726Z,59.38
2019-03-04T21:53:01.474Z,59.83
2019-03-04T21:56:07.809Z,59.53
2019-03-04T21:58:35.683Z,58.80
2019-03-04T22:01:15.699Z,58.54
2019-03-04T22:03:43.664Z,58.77
2019-03-04T22:06:11.570Z,58.48
2019-03-04T22:08:40.835Z,59.81
2019-03-04T22:11:08.745Z,58.81
2019-03-04T22:13:36.733Z,59.24
2019-03-04T22:16:04.793Z,59.37
2019-03-04T22:18:32.855Z,59.38
2019-03-04T22:21:00.691Z,59.23
2019-03-04T22:23:29.214Z,59.74
2019-03-04T22:26:01.847Z,59.78
2019-03-04T22:28:29.799Z,60.21
2019-03-04T22:30:57.950Z,59.45
2019-03-04T22:33:25.886Z,61.07
2019-03-04T22:35:53.831Z,61.26
2019-03-04T22:38:21.839Z,60.71
2019-03-04T22:40:49.909Z,60.28
2019-03-04T22:43:17.676Z,58.80
2019-03-04T22:45:45.730Z,57.33
2019-03-04T22:48:13.606Z,57.77
2019-03-04T22:50:41.612Z,57.89
2019-03-04T22:53:09.474Z,58.15
2019-03-04T22:55:37.935Z,58.46
2019-03-04T22:58:06.055Z,58.77
2019-03-04T23:01:33.671Z,58.56
2019-03-04T23:04:20.641Z,58.68
2019-03-04T23:06:53.467Z,58.09
2019-03-04T23:09:21.529Z,58.70
2019-03-04T23:11:57.110Z,58.44
2019-03-04T23:14:27.469Z,58.14
2019-03-04T23:16:55.419Z,58.31
2019-03-04T23:19:23.268Z,58.84
2019-03-04T23:21:51.317Z,59.36
2019-03-04T23:24:19.336Z,58.59
2019-03-04T23:26:47.435Z,57.99
2019-03-04T23:29:15.228Z,58.73
2019-03-04T23:31:43.357Z,59.57
2019-03-04T23:34:11.251Z,59.41
2019-03-04T23:36:39.172Z,58.98
2019-03-04T23:39:07.885Z,57.73
2019-03-04T23:41:35.865Z,58.02
2019-03-04T23:44:04.055Z,58.26
2019-03-04T23:46:31.871Z,58.20
2019-03-04T23:48:59.661Z,58.20
2019-03-04T23:51:27.956Z,58.25
2019-03-04T23:53:55.757Z,58.54
2019-03-04T23:56:23.771Z,58.64
2019-03-04T23:58:51.693Z,58.70
